»·PEaware :: UAL2233 KLAS-KSFO

UAL2233 :: KLAS-KSFO

FLIGHT INFORMATION

Flight Status: Arrived
Operator:
United Airlines
More flights by this operator :: More flights under this callsign
Pilot: Alfredo R. (12181)
Aircraft: BOEING 737-800
(B738)
More flights by this aircraft type
Origin: KLAS McCarran Intl
United States
Destination: KSFO San Francisco Intl
United States
More flights between these airports :: More routes between these airports
Route: SHEAD1 KENNO RUSME DYAMD4
File this flight plan on PilotEdge
Remarks:
Altitude:
(Current/Filed)
38,000ft
Speed:
(Current/Filed)
425kts
Departed: 17-Oct-18 08:07 PM
Arrived: 17-Oct-18 09:16 PM
Distance/Time
Traveled:
359nm/1:09
Distance/Time
To Go:
Arrived

Flight Plot

Page will automatically refresh every two minutes.

Flight plan parsing failed; only flown route is shown


Map Options




Map Legend


Flown Route
Filed Route
Departure Airport
Arrival Airport
Navaid (VOR, NDB)
Fix

Horizontal Profiles

Position Reports

Time Latitude Longitude Heading Altitude Ground
Speed
17-Oct-18 19:37 36.082952 -115.138746 226 2064ft 0kts
17-Oct-18 19:38 36.082952 -115.138746 226 2064ft 0kts
17-Oct-18 19:39 36.082952 -115.138746 226 2064ft 0kts
17-Oct-18 19:40 36.082952 -115.138746 226 2064ft 0kts
17-Oct-18 19:41 36.082952 -115.138746 226 2064ft 0kts
17-Oct-18 19:42 36.082952 -115.138746 226 2064ft 0kts
17-Oct-18 19:43 36.082952 -115.138746 226 2064ft 0kts
17-Oct-18 19:44 36.082952 -115.138746 226 2064ft 0kts
17-Oct-18 19:45 36.082952 -115.138746 226 2064ft 0kts
17-Oct-18 19:46 36.082952 -115.138746 226 2064ft 0kts
17-Oct-18 19:47 36.082952 -115.138746 226 2064ft 0kts
17-Oct-18 19:48 36.082952 -115.138746 226 2064ft 0kts
17-Oct-18 19:49 36.083178 -115.138449 226 2062ft 2kts
17-Oct-18 19:50 36.083637 -115.138143 197 2060ft 2kts
17-Oct-18 19:51 36.084163 -115.137871 237 2059ft 2kts
17-Oct-18 19:52 36.084207 -115.138888 270 2062ft 7kts
17-Oct-18 19:53 36.084209 -115.139373 270 2064ft 0kts
17-Oct-18 19:54 36.084209 -115.139373 270 2064ft 0kts
17-Oct-18 19:55 36.084209 -115.139524 270 2064ft 2kts
17-Oct-18 19:56 36.084187 -115.140358 254 2067ft 1kts
17-Oct-18 19:57 36.083174 -115.141821 225 2072ft 8kts
17-Oct-18 19:58 36.080664 -115.141632 177 2078ft 10kts
17-Oct-18 19:59 36.079666 -115.141629 181 2082ft 0kts
17-Oct-18 20:00 36.079547 -115.141633 181 2082ft 2kts
17-Oct-18 20:01 36.077557 -115.141280 114 2084ft 10kts
17-Oct-18 20:02 36.077521 -115.135012 90 2065ft 21kts
17-Oct-18 20:03 36.077521 -115.128181 90 2046ft 18kts
17-Oct-18 20:04 36.077539 -115.122287 89 2037ft 10kts
17-Oct-18 20:05 36.077390 -115.121485 137 2037ft 0kts
17-Oct-18 20:06 36.077390 -115.121485 137 2037ft 0kts
17-Oct-18 20:07 36.076993 -115.121315 173 2037ft 5kts
17-Oct-18 20:08 36.076402 -115.124179 270 2041ft 20kts
17-Oct-18 20:09 36.076393 -115.147527 269 2106ft 149kts
17-Oct-18 20:10 36.077348 -115.204141 271 3696ft 177kts
17-Oct-18 20:11 36.059519 -115.265926 219 5015ft 239kts
17-Oct-18 20:12 35.988942 -115.294634 197 6746ft 283kts
17-Oct-18 20:13 35.927363 -115.353585 228 8935ft 294kts
17-Oct-18 20:14 35.888492 -115.440534 270 10368ft 308kts
17-Oct-18 20:15 35.889567 -115.549568 273 12364ft 324kts
17-Oct-18 20:16 35.891349 -115.661570 273 14820ft 333kts
17-Oct-18 20:17 35.893062 -115.776599 273 17552ft 340kts
17-Oct-18 20:18 35.894708 -115.894141 273 19840ft 351kts
17-Oct-18 20:19 35.918212 -116.010390 304 21555ft 355kts
17-Oct-18 20:20 35.994411 -116.086643 319 23106ft 362kts
17-Oct-18 20:21 36.068393 -116.170005 317 23442ft 363kts
17-Oct-18 20:22 36.142410 -116.255416 318 24887ft 370kts
17-Oct-18 20:23 36.218375 -116.343388 319 26174ft 378kts
17-Oct-18 20:24 36.295269 -116.432745 321 27491ft 382kts
17-Oct-18 20:25 36.373499 -116.523830 322 28502ft 391kts
17-Oct-18 20:26 36.452650 -116.616249 322 29601ft 394kts
17-Oct-18 20:27 36.531407 -116.708564 321 30816ft 391kts
17-Oct-18 20:28 36.616352 -116.788429 332 31925ft 382kts
17-Oct-18 20:29 36.706794 -116.856500 331 32903ft 380kts
17-Oct-18 20:30 36.796952 -116.925082 331 33797ft 379kts
17-Oct-18 20:31 36.886738 -116.993590 331 34571ft 379kts
17-Oct-18 20:32 36.976184 -117.062109 331 35295ft 378kts
17-Oct-18 20:33 37.065735 -117.130838 330 35703ft 378kts
17-Oct-18 20:34 37.155094 -117.199653 330 36135ft 378kts
17-Oct-18 20:35 37.244499 -117.268672 330 36681ft 378kts
17-Oct-18 20:36 37.330333 -117.343580 320 37335ft 380kts
17-Oct-18 20:37 37.410482 -117.430220 322 37878ft 381kts
17-Oct-18 20:38 37.480512 -117.529098 301 38265ft 391kts
17-Oct-18 20:39 37.506517 -117.665494 279 38201ft 416kts
17-Oct-18 20:40 37.518347 -117.812058 279 38207ft 427kts
17-Oct-18 20:41 37.530215 -117.960738 279 38196ft 424kts
17-Oct-18 20:42 37.541810 -118.107749 279 38205ft 422kts
17-Oct-18 20:43 37.553241 -118.254583 279 38218ft 423kts
17-Oct-18 20:44 37.564520 -118.402352 279 38223ft 423kts
17-Oct-18 20:45 37.575610 -118.549901 279 38343ft 423kts
17-Oct-18 20:46 37.586446 -118.696318 278 38355ft 425kts
17-Oct-18 20:47 37.597081 -118.842998 278 38355ft 422kts
17-Oct-18 20:48 37.607586 -118.989766 278 38351ft 423kts
17-Oct-18 20:49 37.617943 -119.137728 278 38355ft 423kts
17-Oct-18 20:50 37.627995 -119.283670 278 38353ft 418kts
17-Oct-18 20:51 37.637849 -119.429328 278 38327ft 418kts
17-Oct-18 20:52 37.647486 -119.574297 278 36920ft 413kts
17-Oct-18 20:53 37.656868 -119.718403 278 35352ft 417kts
17-Oct-18 20:54 37.666199 -119.864610 277 33739ft 417kts
17-Oct-18 20:55 37.675392 -120.011048 277 32183ft 426kts
17-Oct-18 20:56 37.684504 -120.159448 278 30601ft 430kts
17-Oct-18 20:57 37.693596 -120.310098 277 29014ft 435kts
17-Oct-18 20:58 37.693168 -120.460259 264 27140ft 428kts
17-Oct-18 20:59 37.678665 -120.581858 264 25472ft 417kts
17-Oct-18 21:00 37.661858 -120.723737 263 23472ft 405kts
17-Oct-18 21:01 37.642658 -120.883701 262 21161ft 389kts
17-Oct-18 21:02 37.629026 -120.994151 261 19664ft 380kts
17-Oct-18 21:03 37.609148 -121.142026 261 17585ft 363kts
17-Oct-18 21:04 37.595613 -121.242144 261 16129ft 343kts
17-Oct-18 21:05 37.579837 -121.373708 263 14235ft 312kts
17-Oct-18 21:06 37.569699 -121.461965 263 12916ft 309kts
17-Oct-18 21:07 37.557423 -121.567689 262 11411ft 307kts
17-Oct-18 21:08 37.539996 -121.672130 252 9927ft 305kts
17-Oct-18 21:09 37.515717 -121.772152 253 8662ft 297kts
17-Oct-18 21:10 37.492705 -121.868956 258 7474ft 289kts
17-Oct-18 21:11 37.495741 -121.966438 276 6300ft 279kts
17-Oct-18 21:12 37.501256 -122.058488 275 5106ft 256kts
17-Oct-18 21:13 37.520541 -122.136051 298 4009ft 213kts
17-Oct-18 21:14 37.546147 -122.196974 298 2827ft 186kts
17-Oct-18 21:15 37.568948 -122.251071 298 1889ft 169kts
17-Oct-18 21:16 37.588663 -122.297964 297 1044ft 129kts
17-Oct-18 21:17 37.606008 -122.339190 297 362ft 134kts
17-Oct-18 21:18 37.620327 -122.373369 297 14ft 38kts
17-Oct-18 21:19 37.622271 -122.382360 268 29ft 20kts
17-Oct-18 21:20 37.621967 -122.387552 291 30ft 10kts
17-Oct-18 21:21 37.622294 -122.390809 242 29ft 9kts
17-Oct-18 21:22 37.619956 -122.391058 119 30ft 12kts
17-Oct-18 21:23 37.620057 -122.389477 28 30ft 2kts
17-Oct-18 21:24 37.620169 -122.389402 27 30ft 0kts
17-Oct-18 21:25 37.620169 -122.389402 27 30ft 0kts

Navigation Log

Ident Type
Flight plan parsing failed, navigation log unavailable